Time;durP1;ratioP1;P1;durP2;ratioP2;P2;SDS_P1;SDS_P2;PMS_P1;PMS_P2;Temp;Humidity;BMP_temperature;BMP_pressure;BME280_temperature;BME280_humidity;BME280_pressure;Samples;Min_cycle;Max_cycle;Signal;HPM_P1;HPM_P2
2022/10/29 00:00:42;;;;;;;16.07;4.20;;;14.60;99.90;;;;;;5035904;28;20556;-77
2022/10/29 00:03:09;;;;;;;12.57;4.03;;;14.50;99.90;;;;;;5034977;28;20281;-77
2022/10/29 00:05:36;;;;;;;23.80;5.63;;;14.50;99.90;;;;;;5034750;28;20499;-77
2022/10/29 00:08:03;;;;;;;22.47;5.07;;;14.50;99.90;;;;;;5033001;28;20214;-77
2022/10/29 00:10:30;;;;;;;19.87;4.40;;;14.50;99.90;;;;;;5033821;28;20309;-76
2022/10/29 00:13:00;;;;;;;20.37;5.07;;;14.50;99.90;;;;;;5034049;28;20230;-78
2022/10/29 00:15:29;;;;;;;14.40;4.50;;;14.50;99.90;;;;;;5035254;28;20213;-76
2022/10/29 00:17:55;;;;;;;17.53;5.00;;;14.50;99.90;;;;;;5032802;28;20187;-78
2022/10/29 00:20:22;;;;;;;9.60;4.07;;;14.50;99.90;;;;;;5035218;28;20207;-77
2022/10/29 00:22:52;;;;;;;22.67;5.47;;;14.50;99.90;;;;;;5034503;28;20232;-77
2022/10/29 00:25:19;;;;;;;15.70;4.40;;;14.50;99.90;;;;;;5034354;28;20198;-79
2022/10/29 00:27:46;;;;;;;15.77;4.20;;;14.50;99.90;;;;;;5033844;28;20211;-77
2022/10/29 00:30:13;;;;;;;15.47;3.90;;;14.50;99.90;;;;;;5032138;28;20215;-77
2022/10/29 00:32:42;;;;;;;15.90;4.07;;;14.40;99.90;;;;;;5034100;28;20195;-77
2022/10/29 00:35:09;;;;;;;15.43;4.77;;;14.40;99.90;;;;;;5033020;28;20214;-77
2022/10/29 00:37:36;;;;;;;16.63;3.97;;;14.40;99.90;;;;;;5034199;28;20206;-77
2022/10/29 00:40:04;;;;;;;10.00;3.20;;;14.40;99.90;;;;;;5034011;28;20755;-78
2022/10/29 00:42:31;;;;;;;10.87;3.50;;;14.30;99.90;;;;;;5016651;28;20210;-77
2022/10/29 00:44:58;;;;;;;12.20;3.60;;;14.30;99.90;;;;;;5029947;28;20209;-77
2022/10/29 00:47:28;;;;;;;9.80;3.83;;;14.30;99.90;;;;;;5034704;28;20552;-78
2022/10/29 00:50:00;;;;;;;8.27;3.33;;;14.30;99.90;;;;;;5032365;28;20191;-78
2022/10/29 00:52:29;;;;;;;8.27;3.43;;;14.20;99.90;;;;;;5014197;28;20188;-78
2022/10/29 00:55:00;;;;;;;8.40;3.00;;;14.20;99.90;;;;;;5028312;28;20301;-77
2022/10/29 00:57:31;;;;;;;6.67;2.67;;;14.20;99.90;;;;;;5033246;28;20209;-78
2022/10/29 00:59:58;;;;;;;9.47;2.90;;;14.10;99.90;;;;;;5033893;28;20209;-78
2022/10/29 01:02:25;;;;;;;8.57;3.30;;;14.00;99.90;;;;;;5034363;28;20602;-78
2022/10/29 01:04:53;;;;;;;10.23;3.20;;;14.00;99.90;;;;;;5033050;28;20900;-78
2022/10/29 01:07:23;;;;;;;11.77;3.23;;;14.00;99.90;;;;;;5032492;28;20204;-78
2022/10/29 01:09:50;;;;;;;16.00;4.00;;;13.90;99.90;;;;;;5034515;28;20206;-78
2022/10/29 01:12:35;;;;;;;7.40;3.20;;;13.90;99.90;;;;;;5032772;28;20230;-78
2022/10/29 01:15:12;;;;;;;8.43;2.87;;;13.90;99.90;;;;;;5033488;28;20205;-78
2022/10/29 01:17:53;;;;;;;7.23;2.50;;;13.80;99.90;;;;;;5031076;28;20195;-78
2022/10/29 01:20:45;;;;;;;11.97;3.00;;;13.80;99.90;;;;;;5034088;28;20201;-78
2022/10/29 01:23:42;;;;;;;6.03;2.30;;;13.70;99.90;;;;;;5032308;28;20654;-78
2022/10/29 01:26:29;;;;;;;11.70;3.17;;;13.70;99.90;;;;;;5034296;28;20191;-78
2022/10/29 01:29:11;;;;;;;7.07;2.30;;;13.70;99.90;;;;;;5030892;28;20205;-78
2022/10/29 01:31:48;;;;;;;8.80;2.97;;;13.70;99.90;;;;;;5033856;28;20301;-78
2022/10/29 01:34:22;;;;;;;8.33;2.63;;;13.60;99.90;;;;;;5031900;28;20190;-78
2022/10/29 01:36:54;;;;;;;12.70;3.57;;;13.60;99.90;;;;;;5033833;28;20714;-78
2022/10/29 01:39:29;;;;;;;10.87;3.87;;;13.60;99.90;;;;;;5033443;28;20205;-78
2022/10/29 01:42:02;;;;;;;13.03;3.60;;;13.60;99.90;;;;;;5033552;28;20190;-78
2022/10/29 01:44:35;;;;;;;11.10;4.27;;;13.60;99.90;;;;;;5032374;28;20187;-78
2022/10/29 01:47:05;;;;;;;13.73;4.37;;;13.60;99.90;;;;;;5033636;28;20202;-77
2022/10/29 01:49:37;;;;;;;10.37;4.10;;;13.60;99.90;;;;;;5031289;28;20210;-78
2022/10/29 01:52:06;;;;;;;9.20;3.80;;;13.50;99.90;;;;;;5013621;28;20223;-77
2022/10/29 01:54:33;;;;;;;17.47;5.70;;;13.50;99.90;;;;;;5022338;28;20222;-78
2022/10/29 01:57:00;;;;;;;19.87;6.53;;;13.50;99.90;;;;;;5029679;28;20526;-78
2022/10/29 01:59:31;;;;;;;13.53;5.60;;;13.50;99.90;;;;;;5033206;28;20202;-78
2022/10/29 02:02:12;;;;;;;9.60;5.00;;;13.50;99.90;;;;;;5031867;28;20205;-77
2022/10/29 02:04:59;;;;;;;11.43;5.10;;;13.50;99.90;;;;;;5032481;28;20587;-77
2022/10/29 02:07:41;;;;;;;13.87;5.60;;;13.50;99.90;;;;;;5031669;28;20210;-77
2022/10/29 02:10:16;;;;;;;15.17;6.20;;;13.50;99.90;;;;;;5032872;28;20186;-78
2022/10/29 02:12:47;;;;;;;19.90;7.70;;;13.50;99.90;;;;;;5030148;28;20230;-78
2022/10/29 02:15:19;;;;;;;16.10;7.03;;;13.50;99.90;;;;;;5033024;28;20191;-77
2022/10/29 02:17:47;;;;;;;18.30;7.90;;;13.50;99.90;;;;;;5030424;28;20191;-77
2022/10/29 02:20:16;;;;;;;15.03;7.30;;;13.50;99.90;;;;;;5032922;28;20655;-77
2022/10/29 02:22:43;;;;;;;20.10;8.90;;;13.50;99.90;;;;;;5031079;28;20317;-77
2022/10/29 02:25:11;;;;;;;17.53;7.60;;;13.50;99.90;;;;;;5032470;28;20207;-77
2022/10/29 02:27:38;;;;;;;18.80;8.30;;;13.50;99.90;;;;;;5031911;28;20198;-78
2022/10/29 02:30:06;;;;;;;23.43;10.20;;;13.50;99.90;;;;;;5030961;28;20626;-78
2022/10/29 02:32:33;;;;;;;24.57;12.47;;;13.40;99.90;;;;;;5032616;28;20245;-78
2022/10/29 02:35:01;;;;;;;19.23;10.57;;;13.40;99.90;;;;;;5031106;28;20202;-77
2022/10/29 02:37:29;;;;;;;24.23;10.27;;;13.40;99.90;;;;;;5032011;28;20194;-77
2022/10/29 02:39:56;;;;;;;18.27;10.97;;;13.40;99.90;;;;;;5022205;28;20203;-78
2022/10/29 02:42:23;;;;;;;25.13;12.07;;;13.40;99.90;;;;;;5012863;28;20196;-77
2022/10/29 02:44:50;;;;;;;30.70;14.23;;;13.40;99.90;;;;;;5020258;28;20203;-77
2022/10/29 02:47:17;;;;;;;32.63;18.07;;;13.40;99.90;;;;;;5032747;28;20626;-77
2022/10/29 02:49:44;;;;;;;38.57;19.37;;;13.40;99.90;;;;;;5032190;28;20203;-78
2022/10/29 02:52:12;;;;;;;33.13;19.20;;;13.40;99.90;;;;;;5031393;28;20526;-78
2022/10/29 02:54:39;;;;;;;42.40;20.33;;;13.40;99.90;;;;;;5031439;28;20223;-78
2022/10/29 02:57:06;;;;;;;31.70;18.20;;;13.40;99.90;;;;;;5030804;28;20210;-77
2022/10/29 02:59:33;;;;;;;33.03;17.87;;;13.40;99.90;;;;;;5031144;28;20289;-78
2022/10/29 03:01:59;;;;;;;38.13;20.60;;;13.40;99.90;;;;;;5030567;28;20229;-78
2022/10/29 03:04:26;;;;;;;32.23;18.80;;;13.40;99.90;;;;;;5032320;28;20202;-78
2022/10/29 03:06:53;;;;;;;29.17;18.73;;;13.40;99.90;;;;;;5028845;28;20218;-78
2022/10/29 03:09:22;;;;;;;30.67;17.87;;;13.40;99.90;;;;;;5032480;28;20205;-78
2022/10/29 03:11:49;;;;;;;29.50;17.77;;;13.40;99.90;;;;;;5030271;28;20214;-78
2022/10/29 03:14:16;;;;;;;28.53;18.03;;;13.40;99.90;;;;;;5031674;28;20306;-77
2022/10/29 03:16:42;;;;;;;30.40;17.63;;;13.40;99.90;;;;;;5022561;28;20211;-76
2022/10/29 03:19:09;;;;;;;25.53;15.93;;;13.40;99.90;;;;;;5030640;28;20217;-77
2022/10/29 03:21:36;;;;;;;20.80;15.77;;;13.40;99.90;;;;;;5031487;28;20205;-78
2022/10/29 03:24:04;;;;;;;25.90;16.33;;;13.40;99.90;;;;;;5030628;28;20266;-78
2022/10/29 03:26:33;;;;;;;22.33;15.67;;;13.30;99.90;;;;;;5031701;28;20228;-77
2022/10/29 03:29:00;;;;;;;25.50;14.90;;;13.40;99.90;;;;;;5030707;28;20199;-76
2022/10/29 03:31:27;;;;;;;21.93;15.03;;;13.40;99.90;;;;;;5031466;28;20613;-77
2022/10/29 03:33:54;;;;;;;18.27;13.27;;;13.40;99.90;;;;;;5029513;28;20203;-78
2022/10/29 03:36:20;;;;;;;22.37;14.37;;;13.40;99.90;;;;;;5032298;28;20199;-77
2022/10/29 03:38:47;;;;;;;22.60;14.63;;;13.40;99.90;;;;;;5031469;28;20284;-77
2022/10/29 03:41:15;;;;;;;22.87;14.17;;;13.40;99.90;;;;;;5031162;28;20244;-77
2022/10/29 03:43:43;;;;;;;23.00;15.27;;;13.40;99.90;;;;;;5032012;28;20203;-77
2022/10/29 03:46:10;;;;;;;24.50;15.23;;;13.40;99.90;;;;;;5030835;28;20214;-77
2022/10/29 03:48:37;;;;;;;27.77;17.00;;;13.40;99.90;;;;;;5030139;28;20203;-77
2022/10/29 03:51:05;;;;;;;20.27;14.57;;;13.40;99.90;;;;;;5030199;28;20291;-78
2022/10/29 03:53:34;;;;;;;23.93;15.17;;;13.40;99.90;;;;;;5031780;28;20214;-79
2022/10/29 03:56:01;;;;;;;25.20;16.07;;;13.40;99.90;;;;;;5029395;28;20221;-78
2022/10/29 03:58:28;;;;;;;25.33;15.40;;;13.40;99.90;;;;;;5031988;28;20268;-78
2022/10/29 04:00:58;;;;;;;27.37;17.43;;;13.40;99.90;;;;;;5030791;28;20228;-78
2022/10/29 04:03:26;;;;;;;22.60;15.07;;;13.40;99.90;;;;;;5031241;28;20205;-78
2022/10/29 04:05:54;;;;;;;23.07;14.70;;;13.30;99.90;;;;;;5029951;28;20201;-78
2022/10/29 04:08:21;;;;;;;20.93;14.10;;;13.40;99.90;;;;;;5031823;28;20210;-78
2022/10/29 04:10:50;;;;;;;24.53;15.37;;;13.40;99.90;;;;;;5030214;28;20190;-79
2022/10/29 04:13:17;;;;;;;23.03;15.07;;;13.40;99.90;;;;;;5030786;28;20233;-77
2022/10/29 04:15:44;;;;;;;18.90;13.23;;;13.30;99.90;;;;;;5030413;28;20199;-78
2022/10/29 04:18:13;;;;;;;16.80;12.83;;;13.30;99.90;;;;;;5013284;28;20630;-77
2022/10/29 04:20:40;;;;;;;16.10;11.93;;;13.20;99.90;;;;;;5035219;28;20298;-78
2022/10/29 04:23:07;;;;;;;15.17;11.77;;;13.30;99.90;;;;;;5032409;28;20230;-78
2022/10/29 04:25:34;;;;;;;20.20;14.43;;;13.30;99.90;;;;;;5035411;28;20635;-79
2022/10/29 04:28:01;;;;;;;28.80;17.30;;;13.30;99.90;;;;;;5033561;28;20285;-78
2022/10/29 04:30:28;;;;;;;21.87;15.37;;;13.20;99.90;;;;;;5033368;28;20211;-78
2022/10/29 04:32:57;;;;;;;25.53;17.03;;;13.30;99.90;;;;;;5034385;28;20229;-79
2022/10/29 04:35:26;;;;;;;26.20;16.93;;;13.30;99.90;;;;;;5031349;28;20262;-78
2022/10/29 04:37:54;;;;;;;28.63;18.17;;;13.30;99.90;;;;;;5033288;28;20187;-77
2022/10/29 04:40:23;;;;;;;25.83;16.33;;;13.30;99.90;;;;;;5034079;28;20211;-78
2022/10/29 04:42:50;;;;;;;21.57;14.70;;;13.30;99.90;;;;;;5034665;28;20195;-78
2022/10/29 04:45:17;;;;;;;22.90;15.57;;;13.30;99.90;;;;;;5032341;28;20221;-77
2022/10/29 04:47:44;;;;;;;26.50;17.10;;;13.30;99.90;;;;;;5034490;28;20194;-78
2022/10/29 04:50:11;;;;;;;20.10;14.10;;;13.30;99.90;;;;;;5032383;28;20313;-78
2022/10/29 04:52:39;;;;;;;17.43;13.60;;;13.30;99.90;;;;;;5034155;28;20215;-78
2022/10/29 04:55:07;;;;;;;15.63;12.30;;;13.30;99.90;;;;;;5032663;28;20241;-78
2022/10/29 04:57:34;;;;;;;21.00;13.93;;;13.30;99.90;;;;;;5034615;28;20621;-78
2022/10/29 05:00:01;;;;;;;19.07;14.07;;;13.30;99.90;;;;;;5032343;28;20213;-77
2022/10/29 05:02:27;;;;;;;16.17;12.60;;;13.30;99.90;;;;;;5014594;28;20198;-78
2022/10/29 05:04:54;;;;;;;15.97;12.30;;;13.30;99.90;;;;;;5013838;28;20215;-77
2022/10/29 05:07:21;;;;;;;16.07;12.40;;;13.30;99.90;;;;;;5029688;28;20206;-78
2022/10/29 05:09:49;;;;;;;13.90;11.27;;;13.30;99.90;;;;;;5033597;28;20199;-78
2022/10/29 05:12:16;;;;;;;13.50;11.50;;;13.30;99.90;;;;;;5032535;28;20374;-78
2022/10/29 05:14:43;;;;;;;14.50;11.63;;;13.30;99.90;;;;;;5034186;28;20210;-77
2022/10/29 05:17:10;;;;;;;15.77;12.57;;;13.20;99.90;;;;;;5032998;28;20507;-78
2022/10/29 05:19:36;;;;;;;18.33;12.33;;;13.20;99.90;;;;;;5032911;28;20207;-77
2022/10/29 05:22:03;;;;;;;11.90;10.60;;;13.20;99.90;;;;;;5032056;28;20605;-77
2022/10/29 05:24:30;;;;;;;14.63;10.50;;;13.20;99.90;;;;;;5034068;28;20290;-78
2022/10/29 05:26:58;;;;;;;17.27;11.77;;;13.20;99.90;;;;;;5033550;28;20203;-78
2022/10/29 05:29:25;;;;;;;15.00;11.20;;;13.30;99.90;;;;;;5033237;28;20296;-77
2022/10/29 05:31:54;;;;;;;14.93;11.87;;;13.20;99.90;;;;;;5033499;28;20239;-78
2022/10/29 05:34:21;;;;;;;15.13;11.13;;;13.30;99.90;;;;;;5032639;28;20253;-78
2022/10/29 05:36:47;;;;;;;20.47;13.90;;;13.20;99.90;;;;;;5033503;28;20202;-77
2022/10/29 05:39:14;;;;;;;18.03;13.67;;;13.30;99.90;;;;;;5031978;28;20209;-78
2022/10/29 05:41:42;;;;;;;15.83;12.17;;;13.30;99.90;;;;;;5032555;28;20202;-78
2022/10/29 05:44:10;;;;;;;22.90;15.87;;;13.30;99.90;;;;;;5032089;28;20211;-77
2022/10/29 05:46:37;;;;;;;22.50;14.83;;;13.30;99.90;;;;;;5033922;28;20553;-78
2022/10/29 05:49:04;;;;;;;21.47;14.40;;;13.30;99.90;;;;;;5031716;28;20211;-77
2022/10/29 05:51:31;;;;;;;21.47;15.00;;;13.40;99.90;;;;;;5034071;28;20209;-77
2022/10/29 05:53:58;;;;;;;24.27;14.07;;;13.30;99.90;;;;;;5032025;28;20241;-77
2022/10/29 05:56:25;;;;;;;25.03;16.60;;;13.40;99.90;;;;;;5013045;28;20206;-78
2022/10/29 05:58:52;;;;;;;23.67;15.47;;;13.40;99.90;;;;;;5012973;28;20209;-77
2022/10/29 06:01:20;;;;;;;22.83;14.13;;;13.40;99.90;;;;;;5012814;28;20199;-76
2022/10/29 06:03:47;;;;;;;19.80;13.20;;;13.40;99.90;;;;;;5014813;28;20295;-77
2022/10/29 06:06:14;;;;;;;20.83;13.97;;;13.40;99.90;;;;;;5031612;28;20211;-78
2022/10/29 06:08:41;;;;;;;21.00;13.37;;;13.40;99.90;;;;;;5032789;28;20199;-77
2022/10/29 06:11:07;;;;;;;21.43;14.23;;;13.40;99.90;;;;;;5031189;28;20260;-77
2022/10/29 06:13:34;;;;;;;21.03;13.53;;;13.40;99.90;;;;;;5032543;28;20218;-78
2022/10/29 06:16:02;;;;;;;17.17;12.30;;;13.40;99.90;;;;;;5031160;28;20208;-77
2022/10/29 06:18:30;;;;;;;18.63;12.57;;;13.40;99.90;;;;;;5031997;28;20568;-77
2022/10/29 06:20:59;;;;;;;21.77;15.30;;;13.40;99.90;;;;;;5033111;28;20203;-78
2022/10/29 06:23:26;;;;;;;24.60;15.40;;;13.40;99.90;;;;;;5032352;28;20231;-78
2022/10/29 06:25:53;;;;;;;23.40;14.93;;;13.50;99.90;;;;;;5031927;28;20198;-77
2022/10/29 06:28:20;;;;;;;21.67;15.77;;;13.50;99.90;;;;;;5032372;28;20686;-76
2022/10/29 06:30:49;;;;;;;22.67;15.40;;;13.50;99.90;;;;;;5030712;28;20293;-77
2022/10/29 06:33:16;;;;;;;31.23;16.50;;;13.50;99.90;;;;;;5032651;28;20686;-77
2022/10/29 06:35:45;;;;;;;29.47;17.23;;;13.50;99.90;;;;;;5032952;28;20203;-78
2022/10/29 06:38:12;;;;;;;27.60;17.67;;;13.50;99.90;;;;;;5030402;28;20217;-78
2022/10/29 06:40:39;;;;;;;26.90;17.30;;;13.50;99.90;;;;;;5032943;28;20201;-79
2022/10/29 06:43:09;;;;;;;32.93;18.33;;;13.50;99.90;;;;;;5031796;28;20289;-78
2022/10/29 06:45:36;;;;;;;31.63;18.73;;;13.60;99.90;;;;;;5031471;28;20203;-77
2022/10/29 06:48:03;;;;;;;26.60;18.37;;;13.60;99.90;;;;;;5031431;28;20206;-78
2022/10/29 06:50:31;;;;;;;29.53;20.23;;;13.50;99.90;;;;;;5031223;28;20203;-77
2022/10/29 06:53:01;;;;;;;32.53;19.10;;;13.60;99.90;;;;;;5030546;28;20631;-77
2022/10/29 06:55:28;;;;;;;31.97;19.77;;;13.60;99.90;;;;;;5012717;28;20239;-78
2022/10/29 06:57:59;;;;;;;27.80;18.77;;;13.60;99.90;;;;;;5011906;28;20203;-77
2022/10/29 07:00:26;;;;;;;25.73;18.33;;;13.60;99.90;;;;;;5024660;28;20268;-77
2022/10/29 07:02:53;;;;;;;28.67;18.47;;;13.60;99.90;;;;;;5030177;28;20545;-78
2022/10/29 07:05:20;;;;;;;27.80;19.30;;;13.60;99.90;;;;;;5031704;28;20208;-77
2022/10/29 07:07:47;;;;;;;22.37;16.30;;;13.60;99.90;;;;;;5032178;28;20509;-78
2022/10/29 07:10:16;;;;;;;20.40;15.07;;;13.60;99.90;;;;;;5029661;28;20194;-77
2022/10/29 07:12:44;;;;;;;19.33;14.63;;;13.60;99.90;;;;;;5029617;28;20228;-78
2022/10/29 07:15:12;;;;;;;23.90;16.40;;;13.70;99.90;;;;;;5030424;28;20202;-77
2022/10/29 07:17:39;;;;;;;24.73;16.40;;;13.70;99.90;;;;;;5025998;28;20202;-78
2022/10/29 07:20:07;;;;;;;19.20;15.70;;;13.70;99.90;;;;;;5029167;28;20218;-78
2022/10/29 07:22:35;;;;;;;18.47;14.10;;;13.70;99.90;;;;;;5027940;28;20317;-78
2022/10/29 07:25:02;;;;;;;21.63;15.27;;;13.70;99.90;;;;;;5030605;28;20268;-78
2022/10/29 07:27:30;;;;;;;23.33;16.27;;;13.70;99.90;;;;;;5029433;28;20206;-79
2022/10/29 07:29:57;;;;;;;21.87;15.00;;;13.70;99.90;;;;;;5020852;28;20218;-78
2022/10/29 07:32:24;;;;;;;20.87;14.83;;;13.80;99.90;;;;;;5011749;28;20218;-78
2022/10/29 07:34:51;;;;;;;21.00;16.60;;;13.80;99.90;;;;;;5018415;28;20248;-78
2022/10/29 07:37:18;;;;;;;30.80;18.57;;;13.80;99.90;;;;;;5031969;28;20281;-77
2022/10/29 07:39:45;;;;;;;27.43;18.00;;;13.90;99.90;;;;;;5031469;28;20288;-78
2022/10/29 07:42:12;;;;;;;30.43;18.80;;;13.80;99.90;;;;;;5029749;28;20293;-78
2022/10/29 07:44:40;;;;;;;24.90;17.33;;;13.90;99.90;;;;;;5031292;28;20209;-78
2022/10/29 07:47:07;;;;;;;28.80;17.80;;;13.90;99.90;;;;;;5031358;28;20674;-78
2022/10/29 07:49:34;;;;;;;28.17;17.70;;;13.90;99.90;;;;;;5031565;28;20686;-78
2022/10/29 07:52:01;;;;;;;21.23;16.10;;;13.90;99.90;;;;;;5029774;28;20217;-77
2022/10/29 07:54:28;;;;;;;27.97;16.43;;;13.90;99.90;;;;;;5033856;28;20242;-78
2022/10/29 07:56:55;;;;;;;24.63;16.90;;;13.90;99.90;;;;;;5034305;28;20202;-78
2022/10/29 07:59:21;;;;;;;25.70;17.07;;;13.90;99.90;;;;;;5035633;28;20216;-78
2022/10/29 08:01:50;;;;;;;24.27;16.87;;;13.90;99.90;;;;;;5032152;28;20217;-78
2022/10/29 08:04:17;;;;;;;26.10;17.43;;;14.00;99.90;;;;;;5035553;28;20199;-78
2022/10/29 08:06:44;;;;;;;29.13;18.83;;;14.00;99.90;;;;;;5034963;28;20209;-77
2022/10/29 08:09:11;;;;;;;32.00;20.30;;;14.00;99.90;;;;;;5033519;28;20212;-80
2022/10/29 08:11:38;;;;;;;32.60;20.87;;;14.10;99.90;;;;;;5034572;28;20795;-80
2022/10/29 08:14:06;;;;;;;28.60;19.23;;;14.10;99.90;;;;;;5033340;28;20222;-79
2022/10/29 08:16:32;;;;;;;35.23;21.60;;;14.20;99.90;;;;;;5034040;28;20210;-79
2022/10/29 08:19:01;;;;;;;30.83;19.57;;;14.20;99.90;;;;;;5033489;28;20515;-79
2022/10/29 08:21:28;;;;;;;34.87;21.10;;;14.20;99.90;;;;;;5035273;28;20293;-78
2022/10/29 08:23:55;;;;;;;31.30;20.07;;;14.30;99.90;;;;;;5032977;28;20325;-79
2022/10/29 08:26:22;;;;;;;30.97;21.40;;;14.30;99.90;;;;;;5035053;28;20498;-80
2022/10/29 08:28:48;;;;;;;30.43;23.30;;;14.40;99.90;;;;;;5034874;28;20559;-80
2022/10/29 08:31:16;;;;;;;27.67;20.33;;;14.50;99.90;;;;;;5033712;28;20213;-79
2022/10/29 08:33:42;;;;;;;29.10;21.53;;;14.50;99.90;;;;;;5033861;28;20218;-79
2022/10/29 08:36:11;;;;;;;32.30;21.10;;;14.50;99.90;;;;;;5034591;28;20321;-79
2022/10/29 08:38:38;;;;;;;23.27;17.90;;;14.60;99.90;;;;;;5034446;28;20209;-79
2022/10/29 08:41:23;;;;;;;24.50;18.00;;;14.60;99.90;;;;;;5033627;28;20593;-79
2022/10/29 08:44:15;;;;;;;31.27;19.27;;;14.70;99.90;;;;;;5034316;28;20197;-78
2022/10/29 08:46:46;;;;;;;27.40;19.43;;;14.80;99.90;;;;;;5033341;28;20206;-78
2022/10/29 08:49:18;;;;;;;31.63;21.73;;;14.80;99.90;;;;;;5034942;28;20187;-79
2022/10/29 08:51:52;;;;;;;29.40;19.80;;;14.90;99.90;;;;;;5032897;28;20198;-78
2022/10/29 08:54:19;;;;;;;29.37;20.23;;;14.90;99.90;;;;;;5034897;28;20230;-79
2022/10/29 08:56:50;;;;;;;28.27;19.33;;;15.00;99.90;;;;;;5034234;28;20222;-78
2022/10/29 08:59:20;;;;;;;30.38;20.27;;;15.10;99.90;;;;;;5032976;28;20210;-79
2022/10/29 09:01:47;;;;;;;31.90;21.40;;;15.20;99.90;;;;;;5034206;28;20281;-80
2022/10/29 09:04:23;;;;;;;28.48;20.17;;;15.20;99.90;;;;;;5032067;28;20199;-79
2022/10/29 09:07:05;;;;;;;32.03;20.88;;;15.30;99.90;;;;;;5034387;28;20198;-78
2022/10/29 09:09:38;;;;;;;31.85;21.13;;;15.40;99.90;;;;;;5033241;28;20199;-78
2022/10/29 09:12:22;;;;;;;28.13;19.27;;;15.40;99.90;;;;;;5034170;28;20234;-78
2022/10/29 09:15:09;;;;;;;30.38;20.33;;;15.50;99.90;;;;;;5032529;28;20202;-79
2022/10/29 09:17:43;;;;;;;23.70;17.30;;;15.60;99.90;;;;;;5033892;28;20209;-78
2022/10/29 09:20:23;;;;;;;28.35;19.55;;;15.70;99.90;;;;;;5030996;28;20230;-78
2022/10/29 09:22:58;;;;;;;30.60;19.48;;;15.80;99.90;;;;;;5033821;28;20234;-78
2022/10/29 09:25:30;;;;;;;25.15;18.85;;;15.80;99.90;;;;;;5032344;28;20201;-78
2022/10/29 09:28:13;;;;;;;32.92;19.67;;;15.90;99.90;;;;;;5033807;28;20619;-78
2022/10/29 09:30:47;;;;;;;31.73;20.02;;;15.90;99.90;;;;;;5033671;28;20221;-78
2022/10/29 09:33:19;;;;;;;24.17;17.40;;;16.00;99.90;;;;;;5031436;28;20210;-79
2022/10/29 09:35:52;;;;;;;29.00;18.88;;;16.00;99.90;;;;;;5032612;28;20191;-77
2022/10/29 09:38:23;;;;;;;29.70;20.15;;;16.10;99.90;;;;;;5025936;28;20198;-77
2022/10/29 09:40:50;;;;;;;26.75;17.27;;;16.20;99.90;;;;;;5033201;28;20217;-76
2022/10/29 09:43:28;;;;;;;30.67;19.20;;;16.20;99.90;;;;;;5034148;28;20205;-77
2022/10/29 09:46:11;;;;;;;29.15;19.83;;;16.30;99.90;;;;;;5032684;28;20770;-77
2022/10/29 09:48:45;;;;;;;31.08;19.73;;;16.40;99.90;;;;;;5031641;28;20199;-77
2022/10/29 09:51:22;;;;;;;32.42;19.75;;;16.40;99.90;;;;;;5033394;28;20199;-78
2022/10/29 09:53:52;;;;;;;31.00;19.50;;;16.50;99.90;;;;;;5031681;28;20256;-77
2022/10/29 09:56:19;;;;;;;24.80;18.50;;;16.60;99.90;;;;;;5032419;28;20219;-78
2022/10/29 09:58:52;;;;;;;31.50;20.17;;;16.80;99.90;;;;;;5031367;28;20613;-77
2022/10/29 10:01:19;;;;;;;30.98;19.38;;;16.90;99.90;;;;;;5032888;28;20214;-77
2022/10/29 10:03:49;;;;;;;31.05;19.73;;;17.00;99.90;;;;;;5033427;28;20201;-77
2022/10/29 10:06:17;;;;;;;26.70;19.35;;;17.10;99.90;;;;;;5031691;28;20199;-78
2022/10/29 10:09:00;;;;;;;29.75;19.88;;;17.20;99.90;;;;;;5031123;28;20260;-78
2022/10/29 10:11:35;;;;;;;35.78;18.33;;;17.40;99.90;;;;;;5031398;28;20615;-77
2022/10/29 10:14:08;;;;;;;26.65;17.38;;;17.50;99.90;;;;;;5032638;28;20237;-78
2022/10/29 10:16:36;;;;;;;26.83;16.58;;;17.60;99.90;;;;;;5030744;28;20195;-78
2022/10/29 10:19:03;;;;;;;27.23;16.90;;;17.80;99.90;;;;;;5033068;28;20198;-79
2022/10/29 10:21:32;;;;;;;23.20;15.40;;;17.80;99.90;;;;;;5032695;28;20199;-78
2022/10/29 10:24:00;;;;;;;23.67;16.20;;;17.90;99.90;;;;;;5031971;28;20682;-78
2022/10/29 10:26:31;;;;;;;21.45;14.38;;;18.00;99.90;;;;;;5032883;28;20209;-77
2022/10/29 10:29:12;;;;;;;17.83;12.93;;;18.20;99.90;;;;;;5029893;28;20295;-77
2022/10/29 10:31:40;;;;;;;22.00;13.85;;;18.30;99.90;;;;;;5032321;28;20249;-76
2022/10/29 10:34:16;;;;;;;17.17;12.48;;;18.50;99.90;;;;;;5030633;28;20226;-77
2022/10/29 10:36:46;;;;;;;18.15;12.43;;;18.70;99.90;;;;;;5032177;28;20194;-77
2022/10/29 10:39:29;;;;;;;16.52;11.52;;;18.90;99.90;;;;;;5031315;28;20238;-78
2022/10/29 10:41:59;;;;;;;16.98;10.18;;;19.10;99.90;;;;;;5031498;28;20653;-76
2022/10/29 10:44:27;;;;;;;19.92;11.57;;;19.10;99.90;;;;;;5030511;28;20281;-77
2022/10/29 10:46:56;;;;;;;16.00;9.75;;;19.10;99.90;;;;;;5032727;28;20552;-76
2022/10/29 10:49:31;;;;;;;24.73;12.00;;;19.20;99.90;;;;;;5032230;28;20300;-77
2022/10/29 10:52:00;;;;;;;15.60;9.98;;;19.20;99.90;;;;;;5031291;28;20212;-77
2022/10/29 10:54:33;;;;;;;22.27;9.88;;;19.20;99.90;;;;;;5032417;28;20222;-77
2022/10/29 10:57:02;;;;;;;20.25;10.48;;;19.20;99.90;;;;;;5030191;28;20301;-77
2022/10/29 10:59:54;;;;;;;19.85;9.63;;;19.30;99.90;;;;;;5032220;28;20203;-78
2022/10/29 11:02:29;;;;;;;15.90;9.15;;;19.30;99.90;;;;;;5031360;28;20199;-77
2022/10/29 11:05:00;;;;;;;15.05;9.10;;;19.30;99.90;;;;;;5031519;28;20186;-76
2022/10/29 11:07:33;;;;;;;14.85;8.85;;;19.40;99.90;;;;;;5030977;28;20206;-78
2022/10/29 11:10:04;;;;;;;19.23;9.48;;;19.40;99.90;;;;;;5032034;28;20187;-76
2022/10/29 11:12:35;;;;;;;15.55;8.60;;;19.40;99.90;;;;;;5030296;28;20228;-77
2022/10/29 11:15:08;;;;;;;19.73;9.15;;;19.40;99.90;;;;;;5032230;28;20230;-78
2022/10/29 11:17:46;;;;;;;14.27;8.07;;;19.50;99.90;;;;;;5031171;28;20208;-77
2022/10/29 11:20:19;;;;;;;14.60;8.45;;;19.60;99.90;;;;;;5032320;28;20200;-76
2022/10/29 11:22:54;;;;;;;11.43;8.30;;;19.70;99.90;;;;;;5030442;28;20234;-76
2022/10/29 11:25:28;;;;;;;13.50;7.60;;;19.70;99.90;;;;;;5031479;28;20567;-77
2022/10/29 11:28:01;;;;;;;13.88;8.02;;;19.70;99.90;;;;;;5029805;28;20229;-77
2022/10/29 11:30:31;;;;;;;17.98;8.35;;;19.70;99.90;;;;;;5032328;28;20201;-77
2022/10/29 11:33:06;;;;;;;13.48;8.18;;;19.70;99.90;;;;;;5031461;28;20201;-77
2022/10/29 11:35:40;;;;;;;14.57;7.43;;;19.60;99.90;;;;;;5031378;28;20236;-77
2022/10/29 11:38:14;;;;;;;12.90;7.60;;;19.50;99.90;;;;;;5028961;28;20586;-77
2022/10/29 11:40:48;;;;;;;13.18;8.13;;;19.50;99.90;;;;;;5031191;28;20191;-76
2022/10/29 11:43:19;;;;;;;12.88;8.50;;;19.50;99.90;;;;;;5030090;28;20294;-77
2022/10/29 11:45:57;;;;;;;12.27;8.32;;;19.40;99.90;;;;;;5030729;28;20752;-76
2022/10/29 11:48:37;;;;;;;12.43;8.85;;;19.50;99.90;;;;;;5031001;28;20599;-77
2022/10/29 11:51:14;;;;;;;14.65;8.45;;;19.50;99.90;;;;;;5029817;28;20226;-76
2022/10/29 11:53:58;;;;;;;20.23;8.98;;;19.50;99.90;;;;;;5029979;28;20261;-77
2022/10/29 11:56:38;;;;;;;22.02;9.50;;;19.50;99.90;;;;;;5030625;28;20213;-77
2022/10/29 11:59:11;;;;;;;15.27;9.25;;;19.60;99.90;;;;;;5031937;28;20209;-77
2022/10/29 12:01:49;;;;;;;15.25;8.55;;;19.70;99.90;;;;;;5028624;28;20209;-76
2022/10/29 12:04:24;;;;;;;18.00;9.00;;;19.60;99.90;;;;;;5031858;28;20274;-77
2022/10/29 12:07:03;;;;;;;11.35;8.57;;;19.60;99.90;;;;;;5029443;28;20210;-77
2022/10/29 12:09:58;;;;;;;15.77;9.20;;;19.60;99.90;;;;;;5031601;28;20186;-76
2022/10/29 12:12:32;;;;;;;13.73;8.70;;;19.50;99.90;;;;;;5029655;28;20744;-77
2022/10/29 12:15:10;;;;;;;14.63;8.63;;;19.50;99.90;;;;;;5030572;28;20692;-77
2022/10/29 12:17:45;;;;;;;13.40;8.57;;;19.60;99.90;;;;;;5030437;28;20190;-77
2022/10/29 12:20:17;;;;;;;17.85;9.93;;;19.60;99.90;;;;;;5031852;28;20251;-77
2022/10/29 12:22:51;;;;;;;15.27;8.70;;;19.70;99.90;;;;;;5028918;28;20226;-78
2022/10/29 12:25:31;;;;;;;24.27;9.63;;;19.70;99.90;;;;;;5031664;28;20210;-77
2022/10/29 12:28:18;;;;;;;17.70;9.05;;;19.70;99.90;;;;;;5030312;28;20631;-76
2022/10/29 12:31:06;;;;;;;12.38;7.97;;;19.80;99.90;;;;;;5031530;28;20250;-76
2022/10/29 12:33:38;;;;;;;14.73;7.82;;;19.80;99.90;;;;;;5028361;28;20207;-77
2022/10/29 12:36:14;;;;;;;14.38;8.60;;;19.70;99.90;;;;;;5030641;28;20241;-77
2022/10/29 12:38:42;;;;;;;17.23;8.77;;;19.70;99.90;;;;;;5030186;28;20209;-77
2022/10/29 12:41:17;;;;;;;12.30;6.68;;;19.70;99.90;;;;;;5033310;28;20207;-77
2022/10/29 12:43:46;;;;;;;12.70;7.38;;;19.70;99.90;;;;;;5032277;28;20195;-77
2022/10/29 12:46:24;;;;;;;14.48;7.95;;;19.70;99.90;;;;;;5034627;28;20198;-77